createdAt,value
2022-10-12T00:00:30.095Z,2.20
2022-10-12T00:02:56.609Z,2.43
2022-10-12T00:05:23.221Z,2.70
2022-10-12T00:07:49.705Z,2.30
2022-10-12T00:10:17.387Z,2.40
2022-10-12T00:12:43.875Z,2.43
2022-10-12T00:15:11.267Z,2.67
2022-10-12T00:17:38.296Z,2.43
2022-10-12T00:20:05.915Z,2.77
2022-10-12T00:22:32.379Z,2.70
2022-10-12T00:24:58.870Z,2.30
2022-10-12T00:27:25.422Z,2.10
2022-10-12T00:29:51.917Z,3.03
2022-10-12T00:32:18.969Z,2.30
2022-10-12T00:34:45.420Z,2.10
2022-10-12T00:37:11.945Z,2.50
2022-10-12T00:39:38.470Z,2.77
2022-10-12T00:42:05.003Z,2.43
2022-10-12T00:44:49.194Z,2.60
2022-10-12T00:47:29.855Z,2.30
2022-10-12T00:50:11.500Z,2.57
2022-10-12T00:52:50.305Z,2.60
2022-10-12T00:55:19.510Z,2.40
2022-10-12T00:57:47.608Z,2.37
2022-10-12T01:00:14.845Z,2.13
2022-10-12T01:02:43.005Z,2.40
2022-10-12T01:05:10.437Z,2.57
2022-10-12T01:07:37.203Z,2.40
2022-10-12T01:10:04.793Z,2.23
2022-10-12T01:12:31.982Z,2.43
2022-10-12T01:14:58.725Z,2.40
2022-10-12T01:17:25.148Z,2.47
2022-10-12T01:20:04.887Z,2.40
2022-10-12T01:22:35.820Z,2.70
2022-10-12T01:25:02.251Z,2.27
2022-10-12T01:27:35.093Z,2.40
2022-10-12T01:30:04.559Z,2.10
2022-10-12T01:32:56.163Z,2.20
2022-10-12T01:35:22.683Z,1.93
2022-10-12T01:38:00.915Z,2.27
2022-10-12T01:40:33.911Z,2.30
2022-10-12T01:43:01.162Z,2.57
2022-10-12T01:45:27.622Z,2.10
2022-10-12T01:47:54.983Z,2.33
2022-10-12T01:50:29.640Z,2.70
2022-10-12T01:52:58.964Z,2.17
2022-10-12T01:55:37.451Z,2.00
2022-10-12T01:58:41.538Z,2.07
2022-10-12T02:01:11.050Z,2.13
2022-10-12T02:03:57.446Z,2.17
2022-10-12T02:06:33.257Z,2.20
2022-10-12T02:09:07.825Z,2.20
2022-10-12T02:11:35.884Z,2.50
2022-10-12T02:14:16.226Z,2.23
2022-10-12T02:16:46.510Z,2.13
2022-10-12T02:19:17.373Z,2.40
2022-10-12T02:21:45.028Z,2.30
2022-10-12T02:24:12.684Z,2.80
2022-10-12T02:26:41.717Z,2.10
2022-10-12T02:29:13.602Z,2.50
2022-10-12T02:31:43.092Z,2.33
2022-10-12T02:34:16.943Z,2.43
2022-10-12T02:36:52.509Z,2.20
2022-10-12T02:39:47.454Z,2.20
2022-10-12T02:42:20.811Z,2.67
2022-10-12T02:44:48.172Z,2.20
2022-10-12T02:47:15.535Z,2.30
2022-10-12T02:49:42.239Z,2.50
2022-10-12T02:52:08.730Z,2.07
2022-10-12T02:54:36.068Z,2.20
2022-10-12T02:57:02.717Z,1.93
2022-10-12T02:59:29.386Z,2.13
2022-10-12T03:01:55.883Z,1.67
2022-10-12T03:04:22.408Z,2.23
2022-10-12T03:06:48.916Z,1.90
2022-10-12T03:09:15.478Z,2.23
2022-10-12T03:11:44.666Z,2.10
2022-10-12T03:14:12.301Z,2.00
2022-10-12T03:16:38.799Z,2.40
2022-10-12T03:19:05.435Z,2.67
2022-10-12T03:21:31.962Z,1.70
2022-10-12T03:23:58.469Z,2.17
2022-10-12T03:26:25.021Z,2.40
2022-10-12T03:28:51.648Z,2.43
2022-10-12T03:31:18.165Z,1.90
2022-10-12T03:33:44.646Z,1.57
2022-10-12T03:36:11.170Z,1.97
2022-10-12T03:38:37.724Z,2.00
2022-10-12T03:41:06.762Z,2.37
2022-10-12T03:43:34.241Z,2.33
2022-10-12T03:46:00.779Z,2.10
2022-10-12T03:48:27.356Z,1.80
2022-10-12T03:50:53.845Z,1.90
2022-10-12T03:53:20.756Z,2.00
2022-10-12T03:55:47.558Z,1.80
2022-10-12T03:58:14.453Z,1.87
2022-10-12T04:00:40.925Z,1.67
2022-10-12T04:03:07.439Z,1.60
2022-10-12T04:05:33.989Z,1.73
2022-10-12T04:08:00.554Z,2.27
2022-10-12T04:10:27.151Z,2.30
2022-10-12T04:12:53.721Z,1.67
2022-10-12T04:15:20.241Z,1.70
2022-10-12T04:17:46.703Z,1.83
2022-10-12T04:20:13.274Z,2.17
2022-10-12T04:22:40.050Z,1.47
2022-10-12T04:25:07.089Z,1.40
2022-10-12T04:27:33.611Z,1.83
2022-10-12T04:30:00.074Z,1.80
2022-10-12T04:32:27.145Z,1.80
2022-10-12T04:34:53.670Z,2.30
2022-10-12T04:37:20.139Z,2.07
2022-10-12T04:39:46.746Z,2.50
2022-10-12T04:42:13.249Z,2.27
2022-10-12T04:44:39.742Z,1.77
2022-10-12T04:47:06.235Z,2.10
2022-10-12T04:49:32.711Z,2.07
2022-10-12T04:51:59.170Z,2.00
2022-10-12T04:54:25.647Z,2.17
2022-10-12T04:56:52.138Z,1.97
2022-10-12T04:59:18.720Z,2.10
2022-10-12T05:01:45.395Z,2.10
2022-10-12T05:04:11.964Z,2.43
2022-10-12T05:06:38.413Z,2.30
2022-10-12T05:09:04.961Z,2.00
2022-10-12T05:11:31.528Z,2.20
2022-10-12T05:13:58.174Z,2.20
2022-10-12T05:16:24.832Z,2.30
2022-10-12T05:18:51.312Z,2.00
2022-10-12T05:21:17.851Z,2.40
2022-10-12T05:23:44.694Z,2.03
2022-10-12T05:26:11.172Z,2.57
2022-10-12T05:28:41.086Z,2.37
2022-10-12T05:31:08.309Z,2.10
2022-10-12T05:33:34.802Z,2.43
2022-10-12T05:36:01.294Z,2.40
2022-10-12T05:38:27.739Z,1.90
2022-10-12T05:40:57.837Z,2.20
2022-10-12T05:43:26.767Z,4.07
2022-10-12T05:45:53.289Z,7.10
2022-10-12T05:48:19.848Z,6.90
2022-10-12T05:50:46.310Z,4.93
2022-10-12T05:53:12.753Z,3.80
2022-10-12T05:55:39.243Z,3.30
2022-10-12T05:58:05.688Z,2.93
2022-10-12T06:00:32.211Z,3.27
2022-10-12T06:02:58.715Z,3.00
2022-10-12T06:05:25.709Z,3.20
2022-10-12T06:07:52.346Z,2.30
2022-10-12T06:10:18.908Z,2.43
2022-10-12T06:12:45.354Z,2.30
2022-10-12T06:15:11.869Z,2.33
2022-10-12T06:17:38.480Z,2.60
2022-10-12T06:20:05.463Z,2.40
2022-10-12T06:22:31.927Z,3.27
2022-10-12T06:24:58.625Z,2.60
2022-10-12T06:27:25.425Z,2.87
2022-10-12T06:29:51.918Z,2.60
2022-10-12T06:32:18.387Z,2.90
2022-10-12T06:34:45.771Z,2.57
2022-10-12T06:37:25.293Z,2.90
2022-10-12T06:39:58.731Z,2.53
2022-10-12T06:42:25.243Z,2.80
2022-10-12T06:44:51.773Z,2.90
2022-10-12T06:47:18.204Z,3.03
2022-10-12T06:49:44.681Z,3.00
2022-10-12T06:52:11.163Z,3.10
2022-10-12T06:54:37.668Z,3.07
2022-10-12T06:57:05.746Z,3.23
2022-10-12T06:59:32.303Z,3.33
2022-10-12T07:01:58.947Z,3.83
2022-10-12T07:04:25.498Z,4.10
2022-10-12T07:06:51.969Z,4.70
2022-10-12T07:09:18.459Z,4.60
2022-10-12T07:11:44.950Z,4.77
2022-10-12T07:14:11.503Z,5.30
2022-10-12T07:16:37.956Z,5.10
2022-10-12T07:19:04.444Z,4.73
2022-10-12T07:21:30.883Z,4.00
2022-10-12T07:23:57.357Z,4.27
2022-10-12T07:26:23.820Z,4.88
2022-10-12T07:28:50.470Z,4.93
2022-10-12T07:31:16.966Z,4.75
2022-10-12T07:33:43.447Z,4.43
2022-10-12T07:36:14.825Z,4.85
2022-10-12T07:38:45.308Z,5.10
2022-10-12T07:41:12.561Z,4.75
2022-10-12T07:43:39.288Z,4.85
2022-10-12T07:46:05.893Z,4.53
2022-10-12T07:48:32.659Z,4.82
2022-10-12T07:51:09.074Z,5.00
2022-10-12T07:53:36.912Z,4.85
2022-10-12T07:56:05.937Z,4.82
2022-10-12T07:58:32.696Z,4.97
2022-10-12T08:01:07.000Z,5.13
2022-10-12T08:03:33.633Z,5.63
2022-10-12T08:06:00.392Z,4.72
2022-10-12T08:08:26.896Z,5.03
2022-10-12T08:10:53.352Z,5.00
2022-10-12T08:13:19.876Z,4.60
2022-10-12T08:15:50.275Z,5.00
2022-10-12T08:18:17.004Z,5.00
2022-10-12T08:20:43.518Z,4.97
2022-10-12T08:23:09.971Z,4.85
2022-10-12T08:25:38.048Z,4.97
2022-10-12T08:28:06.254Z,4.72
2022-10-12T08:30:35.836Z,4.18
2022-10-12T08:33:04.810Z,4.60
2022-10-12T08:35:33.351Z,4.22
2022-10-12T08:37:59.832Z,4.63
2022-10-12T08:40:30.469Z,4.53
2022-10-12T08:43:03.465Z,3.92
2022-10-12T08:45:54.981Z,4.05
2022-10-12T08:48:29.024Z,3.60
2022-10-12T08:51:14.797Z,3.63
2022-10-12T08:54:06.997Z,3.42
2022-10-12T08:56:36.603Z,3.28
2022-10-12T08:59:03.621Z,4.53
2022-10-12T09:01:39.889Z,3.47
2022-10-12T09:04:17.541Z,3.05
2022-10-12T09:06:48.040Z,3.05
2022-10-12T09:09:55.866Z,3.45
2022-10-12T09:12:25.283Z,3.60
2022-10-12T09:14:54.777Z,3.35
2022-10-12T09:17:21.165Z,3.35
2022-10-12T09:19:48.291Z,3.10
2022-10-12T09:22:21.170Z,3.67
2022-10-12T09:24:49.026Z,2.40
2022-10-12T09:27:19.882Z,2.25
2022-10-12T09:29:51.610Z,2.80
2022-10-12T09:32:27.650Z,2.50
2022-10-12T09:34:54.938Z,2.58
2022-10-12T09:37:23.831Z,2.72
2022-10-12T09:39:50.545Z,2.08
2022-10-12T09:42:17.036Z,2.42
2022-10-12T09:44:46.670Z,1.83
2022-10-12T09:47:27.424Z,2.58
2022-10-12T09:49:58.901Z,2.70
2022-10-12T09:52:38.019Z,1.60
2022-10-12T09:55:16.815Z,2.17
2022-10-12T09:57:44.874Z,2.30
2022-10-12T10:00:29.806Z,2.03
2022-10-12T10:02:56.857Z,2.00
2022-10-12T10:05:31.804Z,1.85
2022-10-12T10:08:21.316Z,2.20
2022-10-12T10:10:55.515Z,1.80
2022-10-12T10:13:24.367Z,2.33
2022-10-12T10:15:53.512Z,2.25
2022-10-12T10:18:35.145Z,1.75
2022-10-12T10:21:04.001Z,2.13
2022-10-12T10:23:40.465Z,2.13
2022-10-12T10:26:15.636Z,2.20
2022-10-12T10:28:47.334Z,2.10
2022-10-12T10:31:13.929Z,2.30
2022-10-12T10:33:40.842Z,2.13
2022-10-12T10:36:19.890Z,1.88
2022-10-12T10:38:59.154Z,1.80
2022-10-12T10:41:37.753Z,1.65
2022-10-12T10:44:05.442Z,1.60
2022-10-12T10:46:34.500Z,1.65
2022-10-12T10:49:06.495Z,1.67
2022-10-12T10:51:50.576Z,1.80
2022-10-12T10:54:27.839Z,2.15
2022-10-12T10:57:06.339Z,1.85
2022-10-12T10:59:38.082Z,1.85
2022-10-12T11:02:30.356Z,1.85
2022-10-12T11:05:12.399Z,1.70
2022-10-12T11:07:56.782Z,1.63
2022-10-12T11:10:34.972Z,1.33
2022-10-12T11:13:16.829Z,1.60
2022-10-12T11:15:54.325Z,1.20
2022-10-12T11:18:27.769Z,1.75
2022-10-12T11:21:33.913Z,1.02
2022-10-12T11:24:09.423Z,1.45
2022-10-12T11:26:51.634Z,1.30
2022-10-12T11:29:18.216Z,1.40
2022-10-12T11:32:07.824Z,1.25
2022-10-12T11:34:55.576Z,1.40
2022-10-12T11:37:26.708Z,1.50
2022-10-12T11:39:54.438Z,1.35
2022-10-12T11:42:33.643Z,2.13
2022-10-12T11:45:02.417Z,2.83
2022-10-12T11:47:33.486Z,1.30
2022-10-12T11:50:02.465Z,1.30
2022-10-12T11:52:37.056Z,1.15
2022-10-12T11:55:15.609Z,1.25
2022-10-12T11:57:42.172Z,1.35
2022-10-12T12:00:19.642Z,1.42
2022-10-12T12:02:51.277Z,1.42
2022-10-12T12:05:17.951Z,1.25
2022-10-12T12:07:54.015Z,1.67
2022-10-12T12:10:23.430Z,1.27
2022-10-12T12:13:15.093Z,1.50
2022-10-12T12:15:43.995Z,1.17
2022-10-12T12:18:12.190Z,1.23
2022-10-12T12:20:44.832Z,1.23
2022-10-12T12:23:29.042Z,1.42
2022-10-12T12:26:05.824Z,1.40
2022-10-12T12:28:32.822Z,1.17
2022-10-12T12:31:01.735Z,1.02
2022-10-12T12:33:31.508Z,0.88
2022-10-12T12:36:06.372Z,1.13
2022-10-12T12:38:38.538Z,0.93
2022-10-12T12:41:14.267Z,1.42
2022-10-12T12:43:58.497Z,1.35
2022-10-12T12:47:00.194Z,1.30
2022-10-12T12:49:28.459Z,1.35
2022-10-12T12:51:57.957Z,1.20
2022-10-12T12:54:25.080Z,1.13
2022-10-12T12:57:18.252Z,1.10
2022-10-12T13:00:05.382Z,1.17
2022-10-12T13:02:42.673Z,0.98
2022-10-12T13:05:40.138Z,1.23
2022-10-12T13:08:09.707Z,0.82
2022-10-12T13:11:01.162Z,1.10
2022-10-12T13:13:47.696Z,1.15
2022-10-12T13:16:57.566Z,1.17
2022-10-12T13:19:13.591Z,0.82
2022-10-12T13:21:47.876Z,1.38
2022-10-12T13:24:15.633Z,1.20
2022-10-12T13:26:44.541Z,1.30
2022-10-12T13:29:19.613Z,1.40
2022-10-12T13:31:47.278Z,1.15
2022-10-12T13:34:20.251Z,1.15
2022-10-12T13:37:04.565Z,1.10
2022-10-12T13:39:38.837Z,1.23
2022-10-12T13:42:05.549Z,1.45
2022-10-12T13:44:34.964Z,1.05
2022-10-12T13:47:09.478Z,1.00
2022-10-12T13:49:42.966Z,1.10
2022-10-12T13:52:18.689Z,1.25
2022-10-12T13:54:47.477Z,0.90
2022-10-12T13:57:21.151Z,0.85
2022-10-12T13:59:52.565Z,1.40
2022-10-12T14:02:27.138Z,0.90
2022-10-12T14:04:58.769Z,1.50
2022-10-12T14:07:38.208Z,1.13
2022-10-12T14:10:07.446Z,1.33
2022-10-12T14:12:37.348Z,1.02
2022-10-12T14:15:04.913Z,1.38
2022-10-12T14:17:31.535Z,1.25
2022-10-12T14:20:15.072Z,1.00
2022-10-12T14:22:48.009Z,1.00
2022-10-12T14:25:19.916Z,1.20
2022-10-12T14:27:46.455Z,0.80
2022-10-12T14:30:22.478Z,1.40
2022-10-12T14:32:50.494Z,1.30
2022-10-12T14:35:26.139Z,1.30
2022-10-12T14:37:55.016Z,1.83
2022-10-12T14:40:27.432Z,1.23
2022-10-12T14:42:57.896Z,1.38
2022-10-12T14:45:25.889Z,1.38
2022-10-12T14:47:52.995Z,1.70
2022-10-12T14:50:20.913Z,1.00
2022-10-12T14:52:49.821Z,1.35
2022-10-12T14:55:19.547Z,1.67
2022-10-12T14:57:46.688Z,1.40
2022-10-12T15:00:34.652Z,1.33
2022-10-12T15:03:01.489Z,1.23
2022-10-12T15:05:29.210Z,1.27
2022-10-12T15:07:55.861Z,1.70
2022-10-12T15:10:23.495Z,1.20
2022-10-12T15:12:50.437Z,1.45
2022-10-12T15:15:29.074Z,1.48
2022-10-12T15:17:56.095Z,1.20
2022-10-12T15:20:22.936Z,1.40
2022-10-12T15:22:49.403Z,1.98
2022-10-12T15:25:23.118Z,1.60
2022-10-12T15:27:49.603Z,1.10
2022-10-12T15:30:16.535Z,1.42
2022-10-12T15:32:43.824Z,1.73
2022-10-12T15:35:24.474Z,1.50
2022-10-12T15:37:51.864Z,1.65
2022-10-12T15:40:20.126Z,1.48
2022-10-12T15:42:47.006Z,1.30
2022-10-12T15:45:21.706Z,1.60
2022-10-12T15:47:49.255Z,1.58
2022-10-12T15:50:16.972Z,1.30
2022-10-12T15:52:43.747Z,1.50
2022-10-12T15:55:14.806Z,1.40
2022-10-12T15:57:41.492Z,1.40
2022-10-12T16:00:08.610Z,1.52
2022-10-12T16:02:35.300Z,1.55
2022-10-12T16:05:01.968Z,1.40
2022-10-12T16:07:28.433Z,1.20
2022-10-12T16:09:54.899Z,1.38
2022-10-12T16:12:21.411Z,1.10
2022-10-12T16:14:47.872Z,1.27
2022-10-12T16:17:14.594Z,1.20
2022-10-12T16:19:41.458Z,1.85
2022-10-12T16:22:09.919Z,1.85
2022-10-12T16:24:36.393Z,1.35
2022-10-12T16:27:02.896Z,1.55
2022-10-12T16:29:29.584Z,1.55
2022-10-12T16:31:56.062Z,1.60
2022-10-12T16:34:22.549Z,2.13
2022-10-12T16:36:49.015Z,2.10
2022-10-12T16:39:15.552Z,2.13
2022-10-12T16:41:42.077Z,2.17
2022-10-12T16:44:08.553Z,2.25
2022-10-12T16:46:36.932Z,1.70
2022-10-12T16:49:03.673Z,2.05
2022-10-12T16:51:30.105Z,2.08
2022-10-12T16:53:57.130Z,2.05
2022-10-12T16:56:23.604Z,2.15
2022-10-12T16:58:50.256Z,2.05
2022-10-12T17:01:16.798Z,2.15
2022-10-12T17:03:43.301Z,1.95
2022-10-12T17:06:09.953Z,2.30
2022-10-12T17:08:39.352Z,2.58
2022-10-12T17:11:07.839Z,2.40
2022-10-12T17:13:36.435Z,2.10
2022-10-12T17:16:24.836Z,1.98
2022-10-12T17:18:53.549Z,2.72
2022-10-12T17:21:23.626Z,2.08
2022-10-12T17:23:50.255Z,2.45
2022-10-12T17:26:16.806Z,2.30
2022-10-12T17:28:43.342Z,1.95
2022-10-12T17:31:11.748Z,2.08
2022-10-12T17:33:38.522Z,2.42
2022-10-12T17:36:09.122Z,2.03
2022-10-12T17:38:36.317Z,2.20
2022-10-12T17:41:03.987Z,2.85
2022-10-12T17:43:30.996Z,3.00
2022-10-12T17:45:57.566Z,2.45
2022-10-12T17:48:24.095Z,2.65
2022-10-12T17:50:50.644Z,2.78
2022-10-12T17:53:17.205Z,2.20
2022-10-12T17:55:48.750Z,2.58
2022-10-12T17:58:15.585Z,2.67
2022-10-12T18:00:42.232Z,2.50
2022-10-12T18:03:08.856Z,2.65
2022-10-12T18:05:35.397Z,2.58
2022-10-12T18:08:01.948Z,2.70
2022-10-12T18:10:29.439Z,2.83
2022-10-12T18:12:56.002Z,2.92
2022-10-12T18:15:23.192Z,3.35
2022-10-12T18:17:50.706Z,2.47
2022-10-12T18:20:18.562Z,3.00
2022-10-12T18:22:46.039Z,3.10
2022-10-12T18:25:12.576Z,3.20
2022-10-12T18:27:39.072Z,3.10
2022-10-12T18:30:06.121Z,3.50
2022-10-12T18:32:32.825Z,2.78
2022-10-12T18:34:59.379Z,2.50
2022-10-12T18:37:25.930Z,2.72
2022-10-12T18:39:53.718Z,2.60
2022-10-12T18:42:21.333Z,3.10
2022-10-12T18:44:47.819Z,3.10
2022-10-12T18:47:14.326Z,3.13
2022-10-12T18:49:40.906Z,3.30
2022-10-12T18:52:07.369Z,4.50
2022-10-12T18:54:35.113Z,4.45
2022-10-12T18:57:02.771Z,3.67
2022-10-12T18:59:29.202Z,3.85
2022-10-12T19:01:56.105Z,3.88
2022-10-12T19:04:22.564Z,3.50
2022-10-12T19:06:49.135Z,3.22
2022-10-12T19:09:15.605Z,3.58
2022-10-12T19:11:42.096Z,3.00
2022-10-12T19:14:14.037Z,2.90
2022-10-12T19:16:41.635Z,2.88
2022-10-12T19:19:14.902Z,3.40
2022-10-12T19:21:45.265Z,2.67
2022-10-12T19:24:13.651Z,3.03
2022-10-12T19:26:42.310Z,3.00
2022-10-12T19:29:08.803Z,3.08
2022-10-12T19:31:38.133Z,3.40
2022-10-12T19:34:10.828Z,3.17
2022-10-12T19:36:38.272Z,2.75
2022-10-12T19:39:07.529Z,3.05
2022-10-12T19:41:34.788Z,3.30
2022-10-12T19:44:02.135Z,3.80
2022-10-12T19:46:29.019Z,2.90
2022-10-12T19:48:57.191Z,3.58
2022-10-12T19:51:25.169Z,3.42
2022-10-12T19:53:56.440Z,3.72
2022-10-12T19:56:23.641Z,3.67
2022-10-12T19:58:52.711Z,3.33
2022-10-12T20:01:21.440Z,3.33
2022-10-12T20:03:50.481Z,3.20
2022-10-12T20:06:18.421Z,3.28
2022-10-12T20:08:46.141Z,3.53
2022-10-12T20:11:18.489Z,3.10
2022-10-12T20:13:47.842Z,3.45
2022-10-12T20:16:15.505Z,3.65
2022-10-12T20:18:42.268Z,3.70
2022-10-12T20:21:10.664Z,4.15
2022-10-12T20:23:39.857Z,3.90
2022-10-12T20:26:08.439Z,3.78
2022-10-12T20:28:36.479Z,4.47
2022-10-12T20:31:05.381Z,3.55
2022-10-12T20:33:32.787Z,4.25
2022-10-12T20:35:59.472Z,4.05
2022-10-12T20:38:26.006Z,4.15
2022-10-12T20:41:09.675Z,4.03
2022-10-12T20:43:39.770Z,3.70
2022-10-12T20:46:08.052Z,4.70
2022-10-12T20:48:35.630Z,3.60
2022-10-12T20:51:09.303Z,3.20
2022-10-12T20:53:35.885Z,3.85
2022-10-12T20:56:06.331Z,4.22
2022-10-12T20:58:33.306Z,4.22
2022-10-12T21:01:10.354Z,5.15
2022-10-12T21:03:36.947Z,4.30
2022-10-12T21:06:08.326Z,4.32
2022-10-12T21:08:35.110Z,4.18
2022-10-12T21:11:01.754Z,4.53
2022-10-12T21:13:32.330Z,4.50
2022-10-12T21:15:58.936Z,4.50
2022-10-12T21:18:26.011Z,4.60
2022-10-12T21:20:56.909Z,4.30
2022-10-12T21:23:24.455Z,4.57
2022-10-12T21:25:51.738Z,5.22
2022-10-12T21:28:19.006Z,4.20
2022-10-12T21:30:46.699Z,4.30
2022-10-12T21:33:14.697Z,4.22
2022-10-12T21:35:41.464Z,3.70
2022-10-12T21:38:08.211Z,4.05
2022-10-12T21:40:35.393Z,3.85
2022-10-12T21:43:01.914Z,4.10
2022-10-12T21:45:28.405Z,3.70
2022-10-12T21:47:54.885Z,3.95
2022-10-12T21:50:21.415Z,3.85
2022-10-12T21:52:50.018Z,3.88
2022-10-12T21:55:16.916Z,4.40
2022-10-12T21:57:43.589Z,4.40
2022-10-12T22:00:10.801Z,4.03
2022-10-12T22:02:37.274Z,3.80
2022-10-12T22:05:03.915Z,4.13
2022-10-12T22:07:30.417Z,3.67
2022-10-12T22:09:56.859Z,4.28
2022-10-12T22:12:23.346Z,3.85
2022-10-12T22:14:49.842Z,3.83
2022-10-12T22:17:16.335Z,4.38
2022-10-12T22:19:42.799Z,3.75
2022-10-12T22:22:09.355Z,3.95
2022-10-12T22:24:35.976Z,4.53
2022-10-12T22:27:02.495Z,3.80
2022-10-12T22:29:28.975Z,3.95
2022-10-12T22:31:55.447Z,3.72
2022-10-12T22:34:21.843Z,3.75
2022-10-12T22:36:48.297Z,4.15
2022-10-12T22:39:14.731Z,3.55
2022-10-12T22:41:41.164Z,4.07
2022-10-12T22:44:07.630Z,3.90
2022-10-12T22:46:34.104Z,4.03
2022-10-12T22:49:02.650Z,3.60
2022-10-12T22:51:31.364Z,4.20
2022-10-12T22:53:58.191Z,3.78
2022-10-12T22:56:24.650Z,4.03
2022-10-12T22:58:55.593Z,4.68
2022-10-12T23:01:22.084Z,3.80
2022-10-12T23:03:48.888Z,4.03
2022-10-12T23:06:16.824Z,3.83
2022-10-12T23:08:43.659Z,3.85
2022-10-12T23:11:15.918Z,4.07
2022-10-12T23:13:42.826Z,4.05
2022-10-12T23:16:11.616Z,4.15
2022-10-12T23:18:38.998Z,4.47
2022-10-12T23:21:24.062Z,4.30
2022-10-12T23:23:50.497Z,4.38
2022-10-12T23:26:22.235Z,4.47
2022-10-12T23:28:49.380Z,4.57
2022-10-12T23:31:20.251Z,4.03
2022-10-12T23:33:47.332Z,4.10
2022-10-12T23:36:16.330Z,3.90
2022-10-12T23:38:43.921Z,4.05
2022-10-12T23:41:11.269Z,4.43
2022-10-12T23:43:37.753Z,4.30
2022-10-12T23:46:05.182Z,4.00
2022-10-12T23:48:32.107Z,4.22
2022-10-12T23:50:58.868Z,4.70
2022-10-12T23:53:25.602Z,4.38
2022-10-12T23:55:52.517Z,4.13
2022-10-12T23:58:19.494Z,4.03
